Terminal Aerodrome Forecast
Issued by NWS

Home | Current Version | Previous Version | Text Only | Print | Product List | Glossary On
Versions: 1 2 3 4 5 6 7 8 9 10 11 12 13 14 15 16
127
FTUS43 KLSX 171732
TAFCPS
TAF
KCPS 171732Z 1718/1818 VRB03KT P6SM FEW250
     FM180200 10008KT P6SM BKN100
     FM181200 17010KT P6SM BKN025
     FM181600 27019G36KT P6SM BKN035=

USA.gov is the U.S. government's official web portal to all federal, state and local government web resources and services.